sensor_id;sensor_type;location;lat;lon;timestamp;pressure;altitude;pressure_sealevel;temperature
34125;BMP280;20110;53.120;5.786;2023-05-29T00:00:21;102647.00;;;15.01
34125;BMP280;20110;53.120;5.786;2023-05-29T00:02:51;102633.69;;;14.85
34125;BMP280;20110;53.120;5.786;2023-05-29T00:05:18;102658.44;;;14.96
34125;BMP280;20110;53.120;5.786;2023-05-29T00:07:44;102650.44;;;14.91
34125;BMP280;20110;53.120;5.786;2023-05-29T00:10:11;102656.53;;;14.86
34125;BMP280;20110;53.120;5.786;2023-05-29T00:12:38;102658.53;;;14.80
34125;BMP280;20110;53.120;5.786;2023-05-29T00:15:05;102643.28;;;14.63
34125;BMP280;20110;53.120;5.786;2023-05-29T00:17:32;102666.63;;;14.69
34125;BMP280;20110;53.120;5.786;2023-05-29T00:20:02;102654.47;;;14.62
34125;BMP280;20110;53.120;5.786;2023-05-29T00:22:35;102630.72;;;14.42
34125;BMP280;20110;53.120;5.786;2023-05-29T00:25:05;102653.78;;;14.45
34125;BMP280;20110;53.120;5.786;2023-05-29T00:27:31;102658.38;;;14.50
34125;BMP280;20110;53.120;5.786;2023-05-29T00:29:59;102661.78;;;14.45
34125;BMP280;20110;53.120;5.786;2023-05-29T00:32:25;102651.13;;;14.34
34125;BMP280;20110;53.120;5.786;2023-05-29T00:34:51;102635.66;;;14.15
34125;BMP280;20110;53.120;5.786;2023-05-29T00:37:17;102658.47;;;14.22
34125;BMP280;20110;53.120;5.786;2023-05-29T00:39:43;102653.63;;;14.09
34125;BMP280;20110;53.120;5.786;2023-05-29T00:42:09;102654.84;;;14.03
34125;BMP280;20110;53.120;5.786;2023-05-29T00:44:35;102668.69;;;14.07
34125;BMP280;20110;53.120;5.786;2023-05-29T00:47:02;102671.59;;;13.98
34125;BMP280;20110;53.120;5.786;2023-05-29T00:49:28;102685.22;;;13.94
34125;BMP280;20110;53.120;5.786;2023-05-29T00:51:55;102643.44;;;13.63
34125;BMP280;20110;53.120;5.786;2023-05-29T00:54:28;102686.69;;;13.95
34125;BMP280;20110;53.120;5.786;2023-05-29T00:56:59;102682.75;;;14.02
34125;BMP280;20110;53.120;5.786;2023-05-29T00:59:31;102677.69;;;13.93
34125;BMP280;20110;53.120;5.786;2023-05-29T01:01:59;102672.81;;;13.97
34125;BMP280;20110;53.120;5.786;2023-05-29T01:04:26;102646.84;;;13.75
34125;BMP280;20110;53.120;5.786;2023-05-29T01:06:53;102679.16;;;13.88
34125;BMP280;20110;53.120;5.786;2023-05-29T01:09:19;102628.38;;;13.49
34125;BMP280;20110;53.120;5.786;2023-05-29T01:11:54;102688.13;;;13.85
34125;BMP280;20110;53.120;5.786;2023-05-29T01:15:09;102687.38;;;13.90
34125;BMP280;20110;53.120;5.786;2023-05-29T01:20:40;102677.94;;;13.89
34125;BMP280;20110;53.120;5.786;2023-05-29T01:24:01;102684.97;;;13.98
34125;BMP280;20110;53.120;5.786;2023-05-29T01:29:26;102614.78;;;13.47
34125;BMP280;20110;53.120;5.786;2023-05-29T01:31:54;102670.88;;;13.80
34125;BMP280;20110;53.120;5.786;2023-05-29T01:34:20;102677.22;;;13.83
34125;BMP280;20110;53.120;5.786;2023-05-29T01:36:46;102678.16;;;13.85
34125;BMP280;20110;53.120;5.786;2023-05-29T01:39:13;102642.00;;;13.57
34125;BMP280;20110;53.120;5.786;2023-05-29T01:41:41;102654.84;;;13.69
34125;BMP280;20110;53.120;5.786;2023-05-29T01:44:09;102678.91;;;13.86
34125;BMP280;20110;53.120;5.786;2023-05-29T01:46:38;102659.47;;;13.63
34125;BMP280;20110;53.120;5.786;2023-05-29T01:49:04;102682.53;;;13.66
34125;BMP280;20110;53.120;5.786;2023-05-29T01:51:30;102675.00;;;13.53
34125;BMP280;20110;53.120;5.786;2023-05-29T01:53:58;102682.03;;;13.51
34125;BMP280;20110;53.120;5.786;2023-05-29T01:56:28;102660.88;;;13.36
34125;BMP280;20110;53.120;5.786;2023-05-29T01:58:57;102675.69;;;13.43
34125;BMP280;20110;53.120;5.786;2023-05-29T02:01:24;102656.53;;;13.28
34125;BMP280;20110;53.120;5.786;2023-05-29T02:03:50;102677.63;;;13.37
34125;BMP280;20110;53.120;5.786;2023-05-29T02:06:20;102684.19;;;13.41
34125;BMP280;20110;53.120;5.786;2023-05-29T02:08:46;102657.22;;;13.23
34125;BMP280;20110;53.120;5.786;2023-05-29T02:11:13;102676.69;;;13.40
34125;BMP280;20110;53.120;5.786;2023-05-29T02:13:39;102695.38;;;13.57
34125;BMP280;20110;53.120;5.786;2023-05-29T02:16:05;102703.41;;;13.68
34125;BMP280;20110;53.120;5.786;2023-05-29T02:18:31;102698.06;;;13.84
34125;BMP280;20110;53.120;5.786;2023-05-29T02:20:57;102694.44;;;14.04
34125;BMP280;20110;53.120;5.786;2023-05-29T02:23:23;102697.34;;;14.17
34125;BMP280;20110;53.120;5.786;2023-05-29T02:25:48;102673.78;;;14.10
34125;BMP280;20110;53.120;5.786;2023-05-29T02:28:14;102698.03;;;14.35
34125;BMP280;20110;53.120;5.786;2023-05-29T02:30:40;102690.25;;;14.42
34125;BMP280;20110;53.120;5.786;2023-05-29T02:33:06;102646.53;;;14.23
34125;BMP280;20110;53.120;5.786;2023-05-29T02:35:32;102680.75;;;14.52
34125;BMP280;20110;53.120;5.786;2023-05-29T02:37:58;102698.19;;;14.64
34125;BMP280;20110;53.120;5.786;2023-05-29T02:40:23;102667.16;;;14.50
34125;BMP280;20110;53.120;5.786;2023-05-29T02:42:50;102680.00;;;14.63
34125;BMP280;20110;53.120;5.786;2023-05-29T02:45:16;102679.75;;;14.61
34125;BMP280;20110;53.120;5.786;2023-05-29T02:47:42;102644.88;;;14.25
34125;BMP280;20110;53.120;5.786;2023-05-29T02:50:09;102704.81;;;14.52
34125;BMP280;20110;53.120;5.786;2023-05-29T02:52:35;102685.41;;;14.24
34125;BMP280;20110;53.120;5.786;2023-05-29T02:55:05;102705.13;;;14.21
34125;BMP280;20110;53.120;5.786;2023-05-29T02:57:32;102673.78;;;13.99
34125;BMP280;20110;53.120;5.786;2023-05-29T02:59:58;102642.22;;;13.70
34125;BMP280;20110;53.120;5.786;2023-05-29T03:02:24;102668.47;;;13.88
34125;BMP280;20110;53.120;5.786;2023-05-29T03:04:50;102600.69;;;13.35
34125;BMP280;20110;53.120;5.786;2023-05-29T03:07:16;102686.88;;;13.91
34125;BMP280;20110;53.120;5.786;2023-05-29T03:09:42;102684.97;;;13.86
34125;BMP280;20110;53.120;5.786;2023-05-29T03:12:08;102662.13;;;13.74
34125;BMP280;20110;53.120;5.786;2023-05-29T03:14:34;102673.34;;;13.95
34125;BMP280;20110;53.120;5.786;2023-05-29T03:17:06;102678.63;;;14.17
34125;BMP280;20110;53.120;5.786;2023-05-29T03:19:33;102675.44;;;14.47
34125;BMP280;20110;53.120;5.786;2023-05-29T03:21:59;102676.56;;;14.68
34125;BMP280;20110;53.120;5.786;2023-05-29T03:24:25;102687.66;;;14.89
34125;BMP280;20110;53.120;5.786;2023-05-29T03:26:50;102606.63;;;14.53
34125;BMP280;20110;53.120;5.786;2023-05-29T03:29:18;102693.09;;;15.24
34125;BMP280;20110;53.120;5.786;2023-05-29T03:31:44;102665.09;;;15.25
34125;BMP280;20110;53.120;5.786;2023-05-29T03:34:10;102693.56;;;15.58
34125;BMP280;20110;53.120;5.786;2023-05-29T03:36:37;102665.34;;;15.57
34125;BMP280;20110;53.120;5.786;2023-05-29T03:39:03;102656.25;;;15.66
34125;BMP280;20110;53.120;5.786;2023-05-29T03:41:29;102660.75;;;15.82
34125;BMP280;20110;53.120;5.786;2023-05-29T03:43:55;102666.44;;;15.97
34125;BMP280;20110;53.120;5.786;2023-05-29T03:46:21;102694.41;;;16.26
34125;BMP280;20110;53.120;5.786;2023-05-29T03:48:47;102688.50;;;16.33
34125;BMP280;20110;53.120;5.786;2023-05-29T03:51:13;102690.84;;;16.42
34125;BMP280;20110;53.120;5.786;2023-05-29T03:53:38;102666.84;;;16.31
34125;BMP280;20110;53.120;5.786;2023-05-29T03:56:04;102705.47;;;16.60
34125;BMP280;20110;53.120;5.786;2023-05-29T03:58:31;102707.09;;;16.69
34125;BMP280;20110;53.120;5.786;2023-05-29T04:00:57;102715.00;;;16.80
34125;BMP280;20110;53.120;5.786;2023-05-29T04:03:23;102719.81;;;16.87
34125;BMP280;20110;53.120;5.786;2023-05-29T04:05:49;102712.25;;;16.85
34125;BMP280;20110;53.120;5.786;2023-05-29T04:08:15;102738.13;;;17.02
34125;BMP280;20110;53.120;5.786;2023-05-29T04:10:41;102723.91;;;17.07
34125;BMP280;20110;53.120;5.786;2023-05-29T04:13:07;102728.47;;;17.12
34125;BMP280;20110;53.120;5.786;2023-05-29T04:15:32;102711.00;;;17.05
34125;BMP280;20110;53.120;5.786;2023-05-29T04:17:59;102710.22;;;17.10
34125;BMP280;20110;53.120;5.786;2023-05-29T04:20:25;102734.34;;;17.29
34125;BMP280;20110;53.120;5.786;2023-05-29T04:22:51;102725.13;;;17.24
34125;BMP280;20110;53.120;5.786;2023-05-29T04:25:17;102740.06;;;17.39
34125;BMP280;20110;53.120;5.786;2023-05-29T04:27:44;102716.63;;;17.39
34125;BMP280;20110;53.120;5.786;2023-05-29T04:30:15;102740.66;;;17.63
34125;BMP280;20110;53.120;5.786;2023-05-29T04:32:42;102719.56;;;17.67
34125;BMP280;20110;53.120;5.786;2023-05-29T04:35:08;102735.84;;;17.88
34125;BMP280;20110;53.120;5.786;2023-05-29T04:37:35;102745.44;;;17.84
34125;BMP280;20110;53.120;5.786;2023-05-29T04:40:08;102728.69;;;17.78
34125;BMP280;20110;53.120;5.786;2023-05-29T04:42:38;102748.56;;;17.88
34125;BMP280;20110;53.120;5.786;2023-05-29T04:45:06;102736.03;;;17.90
34125;BMP280;20110;53.120;5.786;2023-05-29T04:47:32;102736.47;;;17.94
34125;BMP280;20110;53.120;5.786;2023-05-29T04:50:02;102732.81;;;17.92
34125;BMP280;20110;53.120;5.786;2023-05-29T04:52:28;102744.84;;;18.04
34125;BMP280;20110;53.120;5.786;2023-05-29T04:54:57;102736.66;;;17.96
34125;BMP280;20110;53.120;5.786;2023-05-29T04:57:23;102752.91;;;18.04
34125;BMP280;20110;53.120;5.786;2023-05-29T04:59:49;102743.28;;;17.95
34125;BMP280;20110;53.120;5.786;2023-05-29T05:02:14;102746.38;;;17.86
34125;BMP280;20110;53.120;5.786;2023-05-29T05:04:40;102739.44;;;17.78
34125;BMP280;20110;53.120;5.786;2023-05-29T05:07:09;102730.44;;;17.62
34125;BMP280;20110;53.120;5.786;2023-05-29T05:09:34;102749.66;;;17.66
34125;BMP280;20110;53.120;5.786;2023-05-29T05:12:00;102742.41;;;17.61
34125;BMP280;20110;53.120;5.786;2023-05-29T05:14:27;102749.44;;;17.64
34125;BMP280;20110;53.120;5.786;2023-05-29T05:16:53;102759.88;;;17.67
34125;BMP280;20110;53.120;5.786;2023-05-29T05:19:19;102726.53;;;17.44
34125;BMP280;20110;53.120;5.786;2023-05-29T05:21:45;102753.56;;;17.65
34125;BMP280;20110;53.120;5.786;2023-05-29T05:24:11;102751.28;;;17.69
34125;BMP280;20110;53.120;5.786;2023-05-29T05:26:36;102751.44;;;17.77
34125;BMP280;20110;53.120;5.786;2023-05-29T05:29:02;102734.91;;;17.73
34125;BMP280;20110;53.120;5.786;2023-05-29T05:31:28;102746.38;;;17.86
34125;BMP280;20110;53.120;5.786;2023-05-29T05:33:54;102732.63;;;17.90
34125;BMP280;20110;53.120;5.786;2023-05-29T05:36:20;102720.94;;;17.87
34125;BMP280;20110;53.120;5.786;2023-05-29T05:38:45;102735.13;;;18.01
34125;BMP280;20110;53.120;5.786;2023-05-29T05:41:11;102754.38;;;18.18
34125;BMP280;20110;53.120;5.786;2023-05-29T05:43:37;102757.16;;;18.26
34125;BMP280;20110;53.120;5.786;2023-05-29T05:46:03;102760.91;;;18.36
34125;BMP280;20110;53.120;5.786;2023-05-29T05:48:29;102659.84;;;17.75
34125;BMP280;20110;53.120;5.786;2023-05-29T05:50:55;102740.28;;;18.38
34125;BMP280;20110;53.120;5.786;2023-05-29T05:53:21;102761.78;;;18.65
34125;BMP280;20110;53.120;5.786;2023-05-29T05:55:47;102765.28;;;18.73
34125;BMP280;20110;53.120;5.786;2023-05-29T05:58:13;102744.06;;;18.69
34125;BMP280;20110;53.120;5.786;2023-05-29T06:00:40;102764.91;;;18.89
34125;BMP280;20110;53.120;5.786;2023-05-29T06:03:05;102740.81;;;18.84
34125;BMP280;20110;53.120;5.786;2023-05-29T06:05:33;102766.44;;;19.11
34125;BMP280;20110;53.120;5.786;2023-05-29T06:07:59;102764.56;;;19.27
34125;BMP280;20110;53.120;5.786;2023-05-29T06:10:25;102737.38;;;19.17
34125;BMP280;20110;53.120;5.786;2023-05-29T06:12:51;102771.31;;;19.62
34125;BMP280;20110;53.120;5.786;2023-05-29T06:15:18;102760.22;;;19.65
34125;BMP280;20110;53.120;5.786;2023-05-29T06:17:43;102770.56;;;19.82
34125;BMP280;20110;53.120;5.786;2023-05-29T06:20:10;102747.97;;;19.64
34125;BMP280;20110;53.120;5.786;2023-05-29T06:22:39;102759.41;;;19.78
34125;BMP280;20110;53.120;5.786;2023-05-29T06:25:06;102789.34;;;19.95
34125;BMP280;20110;53.120;5.786;2023-05-29T06:27:32;102771.09;;;19.81
34125;BMP280;20110;53.120;5.786;2023-05-29T06:29:59;102770.50;;;19.75
34125;BMP280;20110;53.120;5.786;2023-05-29T06:32:25;102791.97;;;19.80
34125;BMP280;20110;53.120;5.786;2023-05-29T06:34:53;102793.94;;;19.80
34125;BMP280;20110;53.120;5.786;2023-05-29T06:37:18;102755.31;;;19.56
34125;BMP280;20110;53.120;5.786;2023-05-29T06:39:45;102799.03;;;19.91
34125;BMP280;20110;53.120;5.786;2023-05-29T06:42:11;102798.88;;;19.96
34125;BMP280;20110;53.120;5.786;2023-05-29T06:44:37;102775.66;;;19.93
34125;BMP280;20110;53.120;5.786;2023-05-29T06:47:05;102788.94;;;20.20
34125;BMP280;20110;53.120;5.786;2023-05-29T06:49:31;102799.47;;;20.38
34125;BMP280;20110;53.120;5.786;2023-05-29T06:51:57;102779.63;;;20.28
34125;BMP280;20110;53.120;5.786;2023-05-29T06:54:23;102785.66;;;20.42
34125;BMP280;20110;53.120;5.786;2023-05-29T06:56:49;102810.75;;;20.73
34125;BMP280;20110;53.120;5.786;2023-05-29T06:59:15;102810.63;;;20.86
34125;BMP280;20110;53.120;5.786;2023-05-29T07:01:40;102787.72;;;20.79
34125;BMP280;20110;53.120;5.786;2023-05-29T07:04:06;102787.38;;;20.75
34125;BMP280;20110;53.120;5.786;2023-05-29T07:06:32;102818.56;;;20.91
34125;BMP280;20110;53.120;5.786;2023-05-29T07:08:59;102812.78;;;20.87
34125;BMP280;20110;53.120;5.786;2023-05-29T07:11:25;102803.38;;;20.81
34125;BMP280;20110;53.120;5.786;2023-05-29T07:13:53;102787.38;;;20.83
34125;BMP280;20110;53.120;5.786;2023-05-29T07:16:19;102835.53;;;21.30
34125;BMP280;20110;53.120;5.786;2023-05-29T07:18:45;102834.09;;;21.21
34125;BMP280;20110;53.120;5.786;2023-05-29T07:21:11;102818.78;;;21.09
34125;BMP280;20110;53.120;5.786;2023-05-29T07:23:37;102844.94;;;21.29
34125;BMP280;20110;53.120;5.786;2023-05-29T07:26:03;102806.16;;;21.19
34125;BMP280;20110;53.120;5.786;2023-05-29T07:28:28;102778.97;;;21.24
34125;BMP280;20110;53.120;5.786;2023-05-29T07:30:54;102842.19;;;21.90
34125;BMP280;20110;53.120;5.786;2023-05-29T07:33:20;102801.97;;;21.86
34125;BMP280;20110;53.120;5.786;2023-05-29T07:35:46;102820.66;;;22.07
34125;BMP280;20110;53.120;5.786;2023-05-29T07:38:12;102827.28;;;22.29
34125;BMP280;20110;53.120;5.786;2023-05-29T07:40:37;102794.91;;;21.91
34125;BMP280;20110;53.120;5.786;2023-05-29T07:43:03;102848.41;;;22.23
34125;BMP280;20110;53.120;5.786;2023-05-29T07:45:29;102839.22;;;22.10
34125;BMP280;20110;53.120;5.786;2023-05-29T07:47:55;102792.06;;;21.73
34125;BMP280;20110;53.120;5.786;2023-05-29T07:50:21;102825.22;;;21.97
34125;BMP280;20110;53.120;5.786;2023-05-29T07:52:46;102824.88;;;21.93
34125;BMP280;20110;53.120;5.786;2023-05-29T07:55:12;102835.59;;;22.23
34125;BMP280;20110;53.120;5.786;2023-05-29T07:57:38;102840.84;;;22.61
34125;BMP280;20110;53.120;5.786;2023-05-29T08:00:08;102833.81;;;22.90
34125;BMP280;20110;53.120;5.786;2023-05-29T08:02:35;102808.00;;;22.89
34125;BMP280;20110;53.120;5.786;2023-05-29T08:05:03;102828.94;;;22.89
34125;BMP280;20110;53.120;5.786;2023-05-29T08:07:29;102834.72;;;22.60
34125;BMP280;20110;53.120;5.786;2023-05-29T08:09:56;102832.22;;;22.15
34125;BMP280;20110;53.120;5.786;2023-05-29T08:12:21;102820.78;;;21.61
34125;BMP280;20110;53.120;5.786;2023-05-29T08:14:47;102829.03;;;21.48
34125;BMP280;20110;53.120;5.786;2023-05-29T08:17:13;102828.88;;;21.39
34125;BMP280;20110;53.120;5.786;2023-05-29T08:19:39;102846.72;;;21.42
34125;BMP280;20110;53.120;5.786;2023-05-29T08:22:05;102809.41;;;21.25
34125;BMP280;20110;53.120;5.786;2023-05-29T08:24:31;102844.91;;;21.67
34125;BMP280;20110;53.120;5.786;2023-05-29T08:26:57;102844.00;;;21.87
34125;BMP280;20110;53.120;5.786;2023-05-29T08:29:23;102848.84;;;21.81
34125;BMP280;20110;53.120;5.786;2023-05-29T08:31:49;102833.41;;;21.51
34125;BMP280;20110;53.120;5.786;2023-05-29T08:34:15;102799.66;;;21.37
34125;BMP280;20110;53.120;5.786;2023-05-29T08:36:41;102843.28;;;21.87
34125;BMP280;20110;53.120;5.786;2023-05-29T08:39:08;102857.16;;;21.91
34125;BMP280;20110;53.120;5.786;2023-05-29T08:42:04;102852.03;;;22.10
34125;BMP280;20110;53.120;5.786;2023-05-29T08:44:33;102855.22;;;22.39
34125;BMP280;20110;53.120;5.786;2023-05-29T08:47:03;102862.56;;;22.46
34125;BMP280;20110;53.120;5.786;2023-05-29T08:49:52;102856.53;;;22.62
34125;BMP280;20110;53.120;5.786;2023-05-29T08:52:25;102854.53;;;22.71
34125;BMP280;20110;53.120;5.786;2023-05-29T08:54:53;102863.09;;;22.84
34125;BMP280;20110;53.120;5.786;2023-05-29T08:57:20;102823.53;;;22.56
34125;BMP280;20110;53.120;5.786;2023-05-29T08:59:51;102868.66;;;22.94
34125;BMP280;20110;53.120;5.786;2023-05-29T09:02:17;102823.19;;;22.52
34125;BMP280;20110;53.120;5.786;2023-05-29T09:04:43;102859.72;;;22.76
34125;BMP280;20110;53.120;5.786;2023-05-29T09:07:16;102854.66;;;22.80
34125;BMP280;20110;53.120;5.786;2023-05-29T09:09:45;102853.88;;;22.87
34125;BMP280;20110;53.120;5.786;2023-05-29T09:12:12;102851.28;;;22.72
34125;BMP280;20110;53.120;5.786;2023-05-29T09:14:42;102873.78;;;22.82
34125;BMP280;20110;53.120;5.786;2023-05-29T09:17:11;102839.03;;;22.63
34125;BMP280;20110;53.120;5.786;2023-05-29T09:19:39;102871.91;;;23.00
34125;BMP280;20110;53.120;5.786;2023-05-29T09:22:10;102876.31;;;23.13
34125;BMP280;20110;53.120;5.786;2023-05-29T09:24:37;102881.00;;;23.12
34125;BMP280;20110;53.120;5.786;2023-05-29T09:27:05;102875.97;;;23.09
34125;BMP280;20110;53.120;5.786;2023-05-29T09:29:45;102874.66;;;23.17
34125;BMP280;20110;53.120;5.786;2023-05-29T09:32:14;102869.84;;;23.33
34125;BMP280;20110;53.120;5.786;2023-05-29T09:34:42;102869.44;;;23.36
34125;BMP280;20110;53.120;5.786;2023-05-29T09:37:10;102874.19;;;23.28
34125;BMP280;20110;53.120;5.786;2023-05-29T09:39:50;102867.50;;;23.29
34125;BMP280;20110;53.120;5.786;2023-05-29T09:42:19;102872.56;;;23.33
34125;BMP280;20110;53.120;5.786;2023-05-29T09:44:49;102861.16;;;23.34
34125;BMP280;20110;53.120;5.786;2023-05-29T09:47:19;102869.63;;;23.56
34125;BMP280;20110;53.120;5.786;2023-05-29T09:49:46;102869.41;;;23.61
34125;BMP280;20110;53.120;5.786;2023-05-29T09:52:13;102853.16;;;23.36
34125;BMP280;20110;53.120;5.786;2023-05-29T09:54:44;102878.88;;;23.53
34125;BMP280;20110;53.120;5.786;2023-05-29T09:57:16;102868.38;;;23.57
34125;BMP280;20110;53.120;5.786;2023-05-29T09:59:46;102880.66;;;23.92
34125;BMP280;20110;53.120;5.786;2023-05-29T10:02:17;102881.16;;;23.98
34125;BMP280;20110;53.120;5.786;2023-05-29T10:04:43;102866.84;;;23.63
34125;BMP280;20110;53.120;5.786;2023-05-29T10:07:26;102883.38;;;23.58
34125;BMP280;20110;53.120;5.786;2023-05-29T10:10:00;102872.94;;;23.71
34125;BMP280;20110;53.120;5.786;2023-05-29T10:12:28;102875.72;;;23.81
34125;BMP280;20110;53.120;5.786;2023-05-29T10:14:57;102864.69;;;23.79
34125;BMP280;20110;53.120;5.786;2023-05-29T10:17:33;102875.41;;;23.77
34125;BMP280;20110;53.120;5.786;2023-05-29T10:20:05;102877.16;;;23.65
34125;BMP280;20110;53.120;5.786;2023-05-29T10:22:40;102877.41;;;23.76
34125;BMP280;20110;53.120;5.786;2023-05-29T10:25:13;102870.91;;;24.23
34125;BMP280;20110;53.120;5.786;2023-05-29T10:27:41;102835.22;;;24.54
34125;BMP280;20110;53.120;5.786;2023-05-29T10:36:06;102871.63;;;25.23
34125;BMP280;20110;53.120;5.786;2023-05-29T10:38:33;102869.19;;;25.37
34125;BMP280;20110;53.120;5.786;2023-05-29T10:43:55;102865.06;;;25.94
34125;BMP280;20110;53.120;5.786;2023-05-29T10:49:19;102880.09;;;26.54
34125;BMP280;20110;53.120;5.786;2023-05-29T10:51:46;102886.16;;;26.84
34125;BMP280;20110;53.120;5.786;2023-05-29T10:54:12;102865.59;;;26.92
34125;BMP280;20110;53.120;5.786;2023-05-29T10:56:51;102871.34;;;27.08
34125;BMP280;20110;53.120;5.786;2023-05-29T10:59:18;102863.66;;;27.04
34125;BMP280;20110;53.120;5.786;2023-05-29T11:01:44;102874.66;;;26.85
34125;BMP280;20110;53.120;5.786;2023-05-29T11:06:48;102863.81;;;27.39
34125;BMP280;20110;53.120;5.786;2023-05-29T11:12:25;102876.38;;;28.22
34125;BMP280;20110;53.120;5.786;2023-05-29T11:15:09;102866.22;;;27.89
34125;BMP280;20110;53.120;5.786;2023-05-29T11:20:37;102880.47;;;26.70
34125;BMP280;20110;53.120;5.786;2023-05-29T11:23:07;102880.00;;;26.43
34125;BMP280;20110;53.120;5.786;2023-05-29T11:25:37;102869.81;;;25.84
34125;BMP280;20110;53.120;5.786;2023-05-29T11:28:05;102883.13;;;26.08
34125;BMP280;20110;53.120;5.786;2023-05-29T11:30:43;102846.59;;;25.83
34125;BMP280;20110;53.120;5.786;2023-05-29T11:33:25;102868.50;;;26.04
34125;BMP280;20110;53.120;5.786;2023-05-29T11:36:00;102876.19;;;26.67
34125;BMP280;20110;53.120;5.786;2023-05-29T11:38:29;102881.81;;;26.59
34125;BMP280;20110;53.120;5.786;2023-05-29T11:40:55;102871.47;;;26.68
34125;BMP280;20110;53.120;5.786;2023-05-29T11:43:24;102872.47;;;26.62
34125;BMP280;20110;53.120;5.786;2023-05-29T11:45:50;102873.25;;;27.05
34125;BMP280;20110;53.120;5.786;2023-05-29T11:48:16;102869.72;;;27.36
34125;BMP280;20110;53.120;5.786;2023-05-29T11:50:42;102857.88;;;27.76
34125;BMP280;20110;53.120;5.786;2023-05-29T11:53:09;102874.34;;;28.22
34125;BMP280;20110;53.120;5.786;2023-05-29T11:55:36;102886.25;;;28.50
34125;BMP280;20110;53.120;5.786;2023-05-29T11:58:04;102887.53;;;28.72
34125;BMP280;20110;53.120;5.786;2023-05-29T12:00:36;102842.66;;;28.40
34125;BMP280;20110;53.120;5.786;2023-05-29T12:03:05;102874.22;;;28.55
34125;BMP280;20110;53.120;5.786;2023-05-29T12:05:45;102874.72;;;28.51
34125;BMP280;20110;53.120;5.786;2023-05-29T12:08:11;102874.09;;;28.65
34125;BMP280;20110;53.120;5.786;2023-05-29T12:10:37;102850.69;;;28.38
34125;BMP280;20110;53.120;5.786;2023-05-29T12:13:03;102881.13;;;28.56
34125;BMP280;20110;53.120;5.786;2023-05-29T12:15:29;102864.00;;;28.44
34125;BMP280;20110;53.120;5.786;2023-05-29T12:17:55;102862.13;;;28.35
34125;BMP280;20110;53.120;5.786;2023-05-29T12:20:24;102850.72;;;28.15
34125;BMP280;20110;53.120;5.786;2023-05-29T12:22:52;102843.78;;;27.91
34125;BMP280;20110;53.120;5.786;2023-05-29T12:25:20;102884.44;;;27.96
34125;BMP280;20110;53.120;5.786;2023-05-29T12:27:47;102858.75;;;27.90
34125;BMP280;20110;53.120;5.786;2023-05-29T12:32:47;102877.78;;;28.11
34125;BMP280;20110;53.120;5.786;2023-05-29T12:40:24;102867.25;;;27.73
34125;BMP280;20110;53.120;5.786;2023-05-29T12:42:57;102859.38;;;27.01
34125;BMP280;20110;53.120;5.786;2023-05-29T12:45:27;102868.53;;;26.75
34125;BMP280;20110;53.120;5.786;2023-05-29T12:50:32;102867.75;;;26.63
34125;BMP280;20110;53.120;5.786;2023-05-29T12:55:35;102863.22;;;26.46
34125;BMP280;20110;53.120;5.786;2023-05-29T12:58:09;102873.63;;;26.09
34125;BMP280;20110;53.120;5.786;2023-05-29T13:00:37;102844.31;;;25.60
34125;BMP280;20110;53.120;5.786;2023-05-29T13:03:07;102856.03;;;25.34
34125;BMP280;20110;53.120;5.786;2023-05-29T13:05:34;102863.97;;;25.03
34125;BMP280;20110;53.120;5.786;2023-05-29T13:08:01;102827.88;;;24.47
34125;BMP280;20110;53.120;5.786;2023-05-29T13:10:28;102852.09;;;24.35
34125;BMP280;20110;53.120;5.786;2023-05-29T13:12:55;102876.72;;;24.37
34125;BMP280;20110;53.120;5.786;2023-05-29T13:15:22;102873.81;;;24.08
34125;BMP280;20110;53.120;5.786;2023-05-29T13:17:49;102878.19;;;23.69
34125;BMP280;20110;53.120;5.786;2023-05-29T13:20:15;102824.91;;;22.97
34125;BMP280;20110;53.120;5.786;2023-05-29T13:22:44;102787.81;;;22.50
34125;BMP280;20110;53.120;5.786;2023-05-29T13:25:15;102841.00;;;22.95
34125;BMP280;20110;53.120;5.786;2023-05-29T13:27:45;102887.09;;;23.20
34125;BMP280;20110;53.120;5.786;2023-05-29T13:30:12;102884.44;;;23.13
34125;BMP280;20110;53.120;5.786;2023-05-29T13:32:40;102886.66;;;23.07
34125;BMP280;20110;53.120;5.786;2023-05-29T13:35:07;102871.69;;;22.98
34125;BMP280;20110;53.120;5.786;2023-05-29T13:37:32;102871.53;;;23.21
34125;BMP280;20110;53.120;5.786;2023-05-29T13:39:58;102858.50;;;23.27
34125;BMP280;20110;53.120;5.786;2023-05-29T13:42:24;102837.63;;;23.12
34125;BMP280;20110;53.120;5.786;2023-05-29T13:44:51;102862.38;;;23.16
34125;BMP280;20110;53.120;5.786;2023-05-29T13:47:17;102871.16;;;22.99
34125;BMP280;20110;53.120;5.786;2023-05-29T13:49:43;102856.84;;;22.74
34125;BMP280;20110;53.120;5.786;2023-05-29T13:52:09;102864.94;;;22.82
34125;BMP280;20110;53.120;5.786;2023-05-29T13:54:34;102854.56;;;22.63
34125;BMP280;20110;53.120;5.786;2023-05-29T13:57:06;102861.00;;;22.75
34125;BMP280;20110;53.120;5.786;2023-05-29T13:59:34;102866.63;;;22.70
34125;BMP280;20110;53.120;5.786;2023-05-29T14:02:01;102869.53;;;22.64
34125;BMP280;20110;53.120;5.786;2023-05-29T14:04:30;102855.84;;;22.62
34125;BMP280;20110;53.120;5.786;2023-05-29T14:06:56;102828.84;;;22.39
34125;BMP280;20110;53.120;5.786;2023-05-29T14:09:23;102840.72;;;22.51
34125;BMP280;20110;53.120;5.786;2023-05-29T14:11:58;102831.25;;;22.28
34125;BMP280;20110;53.120;5.786;2023-05-29T14:14:25;102852.75;;;22.66
34125;BMP280;20110;53.120;5.786;2023-05-29T14:16:52;102859.88;;;22.78
34125;BMP280;20110;53.120;5.786;2023-05-29T14:19:18;102864.16;;;22.89
34125;BMP280;20110;53.120;5.786;2023-05-29T14:21:45;102869.63;;;23.14
34125;BMP280;20110;53.120;5.786;2023-05-29T14:24:12;102870.56;;;23.33
34125;BMP280;20110;53.120;5.786;2023-05-29T14:26:38;102866.88;;;23.38
34125;BMP280;20110;53.120;5.786;2023-05-29T14:29:04;102879.13;;;23.47
34125;BMP280;20110;53.120;5.786;2023-05-29T14:31:30;102868.00;;;23.53
34125;BMP280;20110;53.120;5.786;2023-05-29T14:33:56;102845.47;;;23.25
34125;BMP280;20110;53.120;5.786;2023-05-29T14:36:22;102848.69;;;23.07
34125;BMP280;20110;53.120;5.786;2023-05-29T14:38:48;102809.34;;;22.73